Time;durP1;ratioP1;P1;durP2;ratioP2;P2;SDS_P1;SDS_P2;PMS_P1;PMS_P2;Temp;Humidity;BMP_temperature;BMP_pressure;BME280_temperature;BME280_humidity;BME280_pressure;Samples;Min_cycle;Max_cycle;Signal;HPM_P1;HPM_P2
2021/06/24 00:01:34;;;;;;;;;4.80;4.80;;;;;30.76;55.23;98524.88;5014586;28;8888;-70
2021/06/24 00:04:03;;;;;;;;;5.20;5.20;;;;;30.73;54.73;98525.69;5014303;28;8958;-70
2021/06/24 00:06:32;;;;;;;;;3.00;3.00;;;;;30.64;54.68;98520.75;5014767;28;8861;-70
2021/06/24 00:09:00;;;;;;;;;5.80;5.80;;;;;30.80;55.43;98534.56;5014369;28;8923;-70
2021/06/24 00:11:29;;;;;;;;;5.00;5.00;;;;;30.81;54.74;98547.00;5014483;28;9563;-70
2021/06/24 00:13:58;;;;;;;;;6.75;6.75;;;;;30.81;55.42;98538.06;5014296;28;8841;-70
2021/06/24 00:16:27;;;;;;;;;6.40;6.40;;;;;30.82;55.04;98545.81;5014343;28;8852;-70
2021/06/24 00:18:55;;;;;;;;;6.00;6.00;;;;;30.75;54.92;98529.56;5014225;28;8849;-70
2021/06/24 00:21:24;;;;;;;;;6.00;6.00;;;;;30.82;54.66;98539.59;5014219;28;8838;-70
2021/06/24 00:23:53;;;;;;;;;3.80;3.80;;;;;30.81;54.68;98535.34;5014158;28;8910;-70
2021/06/24 00:26:21;;;;;;;;;4.00;4.00;;;;;30.79;54.36;98541.19;5014053;28;8924;-70
2021/06/24 00:28:49;;;;;;;;;4.40;4.40;;;;;30.85;54.12;98546.19;5014127;28;8849;-70
2021/06/24 00:31:18;;;;;;;;;3.40;3.40;;;;;30.80;53.71;98533.78;5014433;28;8849;-70
2021/06/24 00:33:47;;;;;;;;;4.00;4.00;;;;;30.82;52.80;98542.31;5014516;28;8858;-70
2021/06/24 00:36:15;;;;;;;;;3.00;3.00;;;;;30.91;53.03;98547.28;5014158;28;8850;-70
2021/06/24 00:38:44;;;;;;;;;3.00;3.00;;;;;30.89;52.37;98544.97;5014183;28;8943;-70
2021/06/24 00:41:12;;;;;;;;;3.20;3.20;;;;;30.95;52.48;98546.06;5013813;28;8869;-70
2021/06/24 00:43:41;;;;;;;;;3.80;3.80;;;;;30.97;53.12;98554.59;5013805;28;9608;-70
2021/06/24 00:46:09;;;;;;;;;3.00;3.00;;;;;30.99;52.95;98557.69;5013751;28;8867;-70
2021/06/24 00:48:38;;;;;;;;;2.60;2.60;;;;;30.99;52.22;98557.69;5013685;28;8850;-70
2021/06/24 00:51:07;;;;;;;;;3.00;3.00;;;;;31.02;51.75;98570.50;5013885;28;8931;-70
2021/06/24 00:53:35;;;;;;;;;2.20;2.20;;;;;30.93;51.59;98556.59;5013882;28;8853;-70
2021/06/24 00:56:09;;;;;;;;;3.00;3.00;;;;;30.97;51.11;98553.81;5013653;28;9598;-70
2021/06/24 00:58:37;;;;;;;;;3.00;3.00;;;;;31.06;51.26;98562.28;5013772;28;8837;-70
2021/06/24 01:01:06;;;;;;;;;3.00;3.00;;;;;31.02;51.26;98554.16;5013563;28;8861;-70
2021/06/24 01:03:34;;;;;;;;;3.00;3.00;;;;;31.00;50.69;98542.88;5013412;28;8949;-72
2021/06/24 01:06:03;;;;;;;;;4.80;4.80;;;;;31.08;52.68;98552.53;5011955;28;8881;-70
2021/06/24 01:08:31;;;;;;;;;3.60;3.60;;;;;31.02;51.03;98542.47;5012339;28;8849;-70
2021/06/24 01:11:00;;;;;;;;;3.40;3.40;;;;;31.11;50.94;98548.22;5013343;28;8849;-70
2021/06/24 01:13:28;;;;;;;;;2.00;2.00;;;;;31.11;50.65;98548.22;5012787;28;8865;-70
2021/06/24 01:15:57;;;;;;;;;4.00;4.00;;;;;31.16;50.85;98553.22;5013102;28;8845;-70
2021/06/24 01:18:26;;;;;;;;;2.80;2.80;;;;;31.16;50.55;98553.22;5012552;28;8849;-70
2021/06/24 01:20:55;;;;;;;;;5.20;5.20;;;;;31.17;51.14;98559.44;5013071;28;8861;-70
2021/06/24 01:23:23;;;;;;;;;4.00;4.00;;;;;31.22;50.91;98559.75;5013059;28;8857;-70
2021/06/24 01:25:52;;;;;;;;;5.00;5.00;;;;;31.24;51.61;98568.28;5012690;28;8857;-70
2021/06/24 01:28:20;;;;;;;;;1.80;1.80;;;;;31.20;49.84;98550.47;5013706;28;8928;-69
2021/06/24 01:30:49;;;;;;;;;4.40;4.40;;;;;31.26;52.42;98562.41;5012972;28;8876;-69
2021/06/24 01:33:18;;;;;;;;;5.00;5.00;;;;;31.27;52.06;98558.50;5012806;28;8865;-70
2021/06/24 01:35:46;;;;;;;;;7.00;7.00;;;;;31.35;52.65;98570.88;5012333;28;8872;-70
2021/06/24 01:38:15;;;;;;;;;6.20;5.40;;;;;31.33;53.82;98562.31;5012474;28;8964;-70
2021/06/24 01:40:43;;;;;;;;;5.20;5.20;;;;;31.36;53.71;98572.41;5010576;28;8877;-70
2021/06/24 01:43:12;;;;;;;;;6.40;6.40;;;;;31.29;53.96;98567.81;5012580;28;8857;-70
2021/06/24 01:45:52;;;;;;;;;4.00;4.00;;;;;31.27;52.65;98572.91;5011893;28;8864;-70
2021/06/24 01:48:22;;;;;;;;;4.00;4.00;;;;;31.22;53.16;98576.09;5012007;28;9566;-70
2021/06/24 01:50:53;;;;;;;;;4.60;4.60;;;;;31.23;52.81;98576.88;5012647;28;8829;-70
2021/06/24 01:53:22;;;;;;;;;4.20;4.20;;;;;31.19;53.65;98570.72;5012548;28;8857;-70
2021/06/24 01:55:52;;;;;;;;;3.20;3.20;;;;;31.18;52.97;98574.63;5012065;28;8861;-70
2021/06/24 01:58:23;;;;;;;;;2.40;2.40;;;;;31.14;53.09;98571.94;5011580;28;8846;-70
2021/06/24 02:00:53;;;;;;;;;2.80;2.80;;;;;31.17;53.63;98575.81;5011599;28;8868;-70
2021/06/24 02:03:22;;;;;;;;;4.60;4.60;;;;;31.13;53.28;98584.00;5011714;28;8887;-70
2021/06/24 02:05:53;;;;;;;;;4.00;4.00;;;;;31.14;53.86;98580.13;5010756;28;8862;-70
2021/06/24 02:08:24;;;;;;;;;4.75;4.75;;;;;31.16;53.51;98577.75;5026540;28;8841;-71
2021/06/24 02:10:55;;;;;;;;;3.40;3.40;;;;;31.17;52.90;98573.84;5010931;28;8905;-71
2021/06/24 02:13:24;;;;;;;;;3.00;3.00;;;;;31.17;52.76;98573.84;5010887;28;8841;-71
2021/06/24 02:15:54;;;;;;;;;7.00;7.00;;;;;31.21;53.40;98576.50;5010364;28;9645;-72
2021/06/24 02:18:22;;;;;;;;;3.80;3.80;;;;;31.21;53.74;98574.53;5010943;28;8861;-70
2021/06/24 02:20:51;;;;;;;;;4.80;4.80;;;;;31.22;54.25;98576.09;5026578;28;8831;-69
2021/06/24 02:23:20;;;;;;;;;5.00;5.00;;;;;31.20;53.69;98564.84;5021146;28;8857;-74
2021/06/24 02:25:49;;;;;;;;;6.20;6.20;;;;;31.29;52.68;98564.34;5010787;28;8908;-70
2021/06/24 02:28:17;;;;;;;;;4.20;4.20;;;;;31.35;52.62;98568.16;4991352;28;8856;-71
2021/06/24 02:30:46;;;;;;;;;3.80;3.80;;;;;31.35;52.59;98560.75;4991728;28;8929;-71
2021/06/24 02:33:16;;;;;;;;;3.40;3.40;;;;;31.44;52.39;98566.47;4998135;28;8857;-71
2021/06/24 02:35:55;;;;;;;;;2.40;2.40;;;;;31.48;52.10;98555.50;5009813;28;8848;-71
2021/06/24 02:38:24;;;;;;;;;4.00;4.00;;;;;31.53;51.30;98555.03;5010524;28;8880;-69
2021/06/24 02:40:53;;;;;;;;;2.80;2.80;;;;;31.53;51.39;98555.03;5011299;28;9656;-70
2021/06/24 02:43:21;;;;;;;;;3.60;3.60;;;;;31.59;51.60;98552.63;5010697;28;8845;-73
2021/06/24 02:45:50;;;;;;;;;1.80;1.80;;;;;31.62;51.94;98559.97;5010905;28;8876;-72
2021/06/24 02:48:20;;;;;;;;;4.40;4.40;;;;;31.67;51.47;98559.50;5008470;28;8838;-70
2021/06/24 02:50:49;;;;;;;;;3.40;3.40;;;;;31.70;51.45;98559.50;5010193;28;8983;-70
2021/06/24 02:53:18;;;;;;;;;3.20;3.20;;;;;31.69;52.03;98549.00;5009063;28;8867;-70
2021/06/24 02:55:47;;;;;;;;;2.40;2.40;;;;;31.78;51.26;98552.75;5009593;28;8838;-69
2021/06/24 02:58:15;;;;;;;;;2.20;2.20;;;;;31.78;50.99;98544.56;5024908;28;8987;-69
2021/06/24 03:00:44;;;;;;;;;2.20;2.20;;;;;31.84;51.36;98546.81;5010445;28;8865;-69
2021/06/24 03:03:13;;;;;;;;;3.00;3.00;;;;;31.86;51.88;98544.47;5010529;28;8830;-69
2021/06/24 03:05:41;;;;;;;;;2.80;2.80;;;;;31.87;52.03;98540.53;5011002;28;8890;-70
2021/06/24 03:08:10;;;;;;;;;3.00;3.00;;;;;31.87;52.00;98532.34;5010828;28;8951;-71
2021/06/24 03:10:38;;;;;;;;;3.40;3.40;;;;;31.91;51.85;98533.84;5011274;28;8837;-70
2021/06/24 03:13:07;;;;;;;;;2.00;2.00;;;;;31.96;51.75;98532.59;5009582;28;8885;-70
2021/06/24 03:15:37;;;;;;;;;1.00;1.00;;;;;32.03;51.44;98543.41;5009381;28;8849;-70
2021/06/24 03:18:06;;;;;;;;;2.00;2.00;;;;;32.07;51.04;98533.19;5009366;28;8853;-72
2021/06/24 03:20:35;;;;;;;;;2.60;2.60;;;;;32.16;50.96;98529.94;5008746;28;8849;-69
2021/06/24 03:23:03;;;;;;;;;1.40;1.40;;;;;32.25;51.17;98530.19;5009476;28;8862;-70
2021/06/24 03:25:35;;;;;;;;;2.00;2.00;;;;;32.35;50.92;98526.50;5009213;28;8834;-70
2021/06/24 03:28:03;;;;;;;;;2.80;2.80;;;;;32.40;50.77;98520.56;5009744;28;9691;-72
2021/06/24 03:30:33;;;;;;;;;3.60;3.60;;;;;32.50;50.75;98511.41;5009454;28;8948;-70
2021/06/24 03:33:02;;;;;;;;;2.00;2.00;;;;;32.54;50.22;98506.63;5011409;28;9586;-70
2021/06/24 03:35:30;;;;;;;;;2.00;2.00;;;;;32.63;50.25;98511.50;5013348;28;8857;-70
2021/06/24 03:37:59;;;;;;;;;2.40;2.40;;;;;32.69;49.20;98512.56;5013256;28;8842;-69
2021/06/24 03:40:28;;;;;;;;;1.80;1.80;;;;;32.67;50.33;98501.28;5012238;28;8963;-70
2021/06/24 03:42:57;;;;;;;;;2.00;2.00;;;;;32.85;49.37;98509.16;5012388;28;8838;-70
2021/06/24 03:45:26;;;;;;;;;2.00;2.00;;;;;32.89;49.84;98510.63;5011028;28;8969;-69
2021/06/24 03:47:55;;;;;;;;;3.00;3.00;;;;;32.96;49.63;98510.47;5011435;28;8837;-69
2021/06/24 03:50:24;;;;;;;;;4.00;4.00;;;;;33.03;50.11;98509.56;5011744;28;8874;-71
2021/06/24 03:52:53;;;;;;;;;4.60;4.60;;;;;33.08;49.73;98509.84;5012566;28;8907;-70
2021/06/24 03:55:35;;;;;;;;;3.80;3.80;;;;;33.03;49.24;98485.75;5012332;28;8911;-70
2021/06/24 03:58:06;;;;;;;;;4.80;4.80;;;;;33.12;49.37;98498.81;5011996;28;8849;-71
2021/06/24 04:00:38;;;;;;;;;1.80;1.80;;;;;33.18;49.70;98497.13;5011928;28;8870;-70
2021/06/24 04:03:07;;;;;;;;;0.60;0.60;;;;;33.18;49.60;98493.63;5011918;28;8841;-69
2021/06/24 04:05:37;;;;;;;;;1.80;1.80;;;;;33.16;49.58;98493.28;5011009;28;8838;-71
2021/06/24 04:08:07;;;;;;;;;3.60;3.60;;;;;33.24;48.71;98498.16;5008549;28;8923;-69
2021/06/24 04:10:53;;;;;;;;;2.80;2.80;;;;;33.22;49.04;98472.44;5010110;28;8821;-69
2021/06/24 04:13:21;;;;;;;;;3.00;3.00;;;;;33.37;49.35;98487.38;5010539;28;8845;-69
2021/06/24 04:15:50;;;;;;;;;3.00;3.00;;;;;33.39;49.28;98479.50;5025516;28;8834;-70
2021/06/24 04:18:19;;;;;;;;;4.00;4.00;;;;;33.41;49.02;98479.09;5025227;28;8895;-70
2021/06/24 04:20:47;;;;;;;;;2.00;2.00;;;;;33.41;49.25;98479.09;5010184;28;8868;-69
2021/06/24 04:23:16;;;;;;;;;3.00;3.00;;;;;33.37;47.76;98468.22;5010276;28;8857;-69
2021/06/24 04:25:45;;;;;;;;;2.40;2.40;;;;;33.42;48.85;98478.66;5009642;28;9771;-69
2021/06/24 04:28:14;;;;;;;;;5.00;5.00;;;;;33.45;47.29;98480.53;5023019;28;8883;-69
2021/06/24 04:30:42;;;;;;;;;4.60;4.60;;;;;33.47;48.35;98477.38;5008581;28;8849;-69
2021/06/24 04:33:11;;;;;;;;;3.00;3.00;;;;;33.48;48.52;98473.44;5009094;28;8956;-70
2021/06/24 04:35:40;;;;;;;;;3.00;3.00;;;;;33.50;48.40;98471.06;5007520;28;8864;-70
2021/06/24 04:38:09;;;;;;;;;2.00;2.00;;;;;33.51;48.92;98467.91;5022522;28;9648;-70
2021/06/24 04:40:37;;;;;;;;;2.40;2.40;;;;;33.45;48.74;98455.94;5008422;28;9022;-70
2021/06/24 04:43:06;;;;;;;;;2.80;2.80;;;;;33.53;48.87;98470.97;5007798;28;8996;-70
2021/06/24 04:45:35;;;;;;;;;3.80;3.80;;;;;33.55;48.48;98460.38;5008536;28;8999;-70
2021/06/24 04:48:04;;;;;;;;;2.20;2.20;;;;;33.55;48.60;98456.88;5008701;28;8955;-69
2021/06/24 04:50:33;;;;;;;;;2.80;2.80;;;;;33.64;47.90;98459.78;5008707;28;9001;-69
2021/06/24 04:53:02;;;;;;;;;2.80;2.80;;;;;33.55;48.50;98435.00;5010592;28;8952;-72
2021/06/24 04:55:40;;;;;;;;;2.00;2.00;;;;;33.65;48.49;98440.19;5009938;28;8953;-70
2021/06/24 04:58:09;;;;;;;;;3.40;3.40;;;;;33.76;48.67;98444.63;5024370;28;8923;-69
2021/06/24 05:00:38;;;;;;;;;2.00;2.00;;;;;33.82;48.39;98440.19;5008211;28;8900;-69
2021/06/24 05:03:10;;;;;;;;;2.00;2.00;;;;;33.86;47.64;98429.91;5008965;28;8862;-69
2021/06/24 05:05:42;;;;;;;;;4.40;4.20;;;;;33.94;48.40;98426.56;5008677;28;8932;-71
2021/06/24 05:08:17;;;;;;;;;2.40;2.40;;;;;34.09;48.43;98423.44;5007186;28;8857;-70
2021/06/24 05:10:46;;;;;;;;;2.80;2.80;;;;;34.23;47.15;98410.13;5008441;28;8837;-70
2021/06/24 05:13:15;;;;;;;;;3.60;3.60;;;;;34.37;47.85;98419.19;5009010;28;8861;-70
2021/06/24 05:15:45;;;;;;;;;3.20;3.20;;;;;34.51;46.94;98416.06;5009462;28;8869;-69
2021/06/24 05:18:17;;;;;;;;;3.80;3.80;;;;;34.53;46.16;98397.97;5009330;28;8873;-72
2021/06/24 05:20:47;;;;;;;;;2.80;2.80;;;;;34.67;47.05;98410.50;5011458;28;8881;-70
2021/06/24 05:23:19;;;;;;;;;3.40;3.40;;;;;34.70;46.05;98398.66;5011353;28;8935;-70
2021/06/24 05:25:58;;;;;;;;;6.60;6.60;;;;;34.80;46.37;98405.03;5010919;28;8879;-71
2021/06/24 05:28:28;;;;;;;;;0.00;0.00;;;;;34.79;45.46;98385.06;5009301;28;8853;-71
2021/06/24 05:30:56;;;;;;;;;4.00;4.00;;;;;34.95;45.73;98385.00;5009736;28;8861;-72
2021/06/24 05:33:25;;;;;;;;;2.60;2.60;;;;;35.08;45.86;98385.00;5009831;28;8853;-71
2021/06/24 05:35:54;;;;;;;;;4.40;4.40;;;;;35.18;45.97;98380.34;5008973;28;8892;-70
2021/06/24 05:38:22;;;;;;;;;4.40;4.40;;;;;35.16;44.25;98371.78;5008641;28;8833;-70
2021/06/24 05:40:51;;;;;;;;;2.00;2.00;;;;;35.34;44.67;98391.22;5006744;28;8993;-70
2021/06/24 05:43:20;;;;;;;;;1.80;1.80;;;;;35.35;43.70;98387.25;5009420;28;8857;-70
2021/06/24 05:45:49;;;;;;;;;1.80;1.80;;;;;35.27;44.77;98367.50;5010067;28;9003;-70
2021/06/24 05:48:18;;;;;;;;;2.80;2.80;;;;;35.34;46.63;98377.50;5010470;28;8825;-71
2021/06/24 05:50:49;;;;;;;;;19.00;19.00;;;;;35.32;45.38;98371.69;5009834;28;8869;-70
2021/06/24 05:53:18;;;;;;;;;3.80;3.80;;;;;35.30;45.46;98361.16;5007954;28;8841;-69
2021/06/24 05:58:37;;;;;;;;;1.80;1.80;;;;;35.54;45.40;98364.28;5007905;28;8888;-70
2021/06/24 06:01:05;;;;;;;;;3.00;3.00;;;;;35.55;44.75;98343.09;5007744;28;8971;-69
2021/06/24 06:03:34;;;;;;;;;4.20;4.20;;;;;35.68;44.01;98354.78;5008729;28;8871;-70
2021/06/24 06:06:04;;;;;;;;;1.60;1.60;;;;;35.68;43.82;98351.28;5006631;28;8872;-70
2021/06/24 06:08:33;;;;;;;;;1.80;1.80;;;;;35.64;45.29;98348.66;5007176;28;8846;-73
2021/06/24 06:11:04;;;;;;;;;4.20;4.20;;;;;35.63;45.98;98338.91;5010246;28;9569;-71
2021/06/24 06:13:33;;;;;;;;;2.60;2.60;;;;;35.58;44.28;98337.50;5007868;28;8849;-71
2021/06/24 06:16:02;;;;;;;;;3.80;3.80;;;;;35.60;44.30;98335.06;5009812;28;8849;-70
2021/06/24 06:18:31;;;;;;;;;3.00;3.00;;;;;35.69;45.47;98326.16;5009569;28;8919;-71
2021/06/24 06:21:00;;;;;;;;;1.80;1.80;;;;;35.79;44.18;98327.78;5010030;28;9618;-72
2021/06/24 06:23:29;;;;;;;;;1.00;1.00;;;;;35.86;43.73;98313.03;5009903;28;8968;-70
2021/06/24 06:25:58;;;;;;;;;4.00;2.60;;;;;36.02;43.78;98323.81;5010160;28;8968;-72
2021/06/24 06:28:27;;;;;;;;;0.80;0.80;;;;;36.10;43.57;98321.56;5010055;28;8849;-69
2021/06/24 06:30:59;;;;;;;;;2.00;2.00;;;;;36.12;44.14;98308.94;5023008;28;8856;-71
2021/06/24 06:33:28;;;;;;;;;2.60;2.60;;;;;36.14;43.45;98298.25;5010087;28;8924;-70
2021/06/24 06:35:57;;;;;;;;;2.60;2.60;;;;;36.20;45.16;98295.69;5008250;28;8845;-70
2021/06/24 06:38:25;;;;;;;;;2.40;2.40;;;;;36.27;43.13;98298.19;5009866;28;8923;-72
2021/06/24 06:40:54;;;;;;;;;2.40;2.40;;;;;36.32;42.34;98283.13;5007332;28;8842;-71
2021/06/24 06:43:23;;;;;;;;;1.80;1.80;;;;;36.41;42.14;98283.13;5023991;28;8841;-71
2021/06/24 06:45:51;;;;;;;;;2.40;2.40;;;;;36.50;42.89;98266.69;5008658;28;8956;-71
2021/06/24 06:48:21;;;;;;;;;2.00;2.00;;;;;36.64;41.41;98268.88;5008733;28;8883;-72
2021/06/24 06:50:49;;;;;;;;;2.00;2.00;;;;;36.71;42.89;98265.84;5009624;28;8864;-70
2021/06/24 06:53:18;;;;;;;;;1.00;1.00;;;;;36.81;41.82;98263.91;5010134;28;8923;-69
2021/06/24 06:55:47;;;;;;;;;1.20;1.20;;;;;36.84;42.46;98249.25;5009785;28;8841;-70
2021/06/24 06:58:15;;;;;;;;;2.20;2.20;;;;;36.96;42.77;98253.84;5009718;28;8853;-69
2021/06/24 07:00:44;;;;;;;;;1.40;1.40;;;;;37.00;41.99;98254.47;5009860;28;8837;-70
2021/06/24 07:03:14;;;;;;;;;3.00;3.00;;;;;36.95;42.01;98252.31;5009650;28;8838;-71
2021/06/24 07:05:43;;;;;;;;;2.00;2.00;;;;;37.00;41.04;98256.44;5009765;28;8844;-71
2021/06/24 07:08:11;;;;;;;;;1.60;1.60;;;;;37.05;40.73;98250.34;5013022;28;9722;-71
2021/06/24 07:10:41;;;;;;;;;1.00;1.00;;;;;37.06;40.80;98238.13;5026786;28;8945;-71
2021/06/24 07:13:09;;;;;;;;;1.00;1.00;;;;;37.11;42.03;98232.78;5014857;28;8857;-71
2021/06/24 07:15:38;;;;;;;;;0.80;0.80;;;;;37.13;41.05;98224.06;5012924;28;8822;-71
2021/06/24 07:18:11;;;;;;;;;2.40;2.40;;;;;37.24;41.53;98218.91;5013007;28;8853;-71
2021/06/24 07:20:42;;;;;;;;;1.40;1.40;;;;;37.23;41.34;98220.13;5013260;28;8937;-71
2021/06/24 07:23:10;;;;;;;;;1.00;1.00;;;;;37.22;41.19;98215.84;5028116;28;9664;-69
2021/06/24 07:25:39;;;;;;;;;2.00;2.00;;;;;37.18;41.00;98206.97;5013270;28;8903;-71
2021/06/24 07:28:08;;;;;;;;;0.80;0.80;;;;;37.16;41.78;98201.16;5011861;28;8963;-69
2021/06/24 07:30:36;;;;;;;;;1.60;1.60;;;;;37.18;40.73;98206.97;5011814;28;8842;-73
2021/06/24 07:33:06;;;;;;;;;1.80;1.80;;;;;37.16;41.17;98190.16;5012100;28;8873;-69
2021/06/24 07:35:34;;;;;;;;;1.20;1.20;;;;;37.14;40.65;98192.59;5012098;28;8861;-70
2021/06/24 07:38:07;;;;;;;;;1.00;1.00;;;;;37.13;40.17;98191.06;5010318;28;8853;-71
2021/06/24 07:40:57;;;;;;;;;0.20;0.20;;;;;37.10;41.34;98179.00;5012015;28;10717;-72
2021/06/24 07:43:25;;;;;;;;;2.00;2.00;;;;;37.01;41.91;98183.75;4990139;28;8861;-72
2021/06/24 07:45:54;;;;;;;;;1.00;1.00;;;;;37.04;41.00;98191.06;4990271;28;8850;-71
2021/06/24 07:48:23;;;;;;;;;0.80;0.80;;;;;37.00;40.53;98182.22;4987757;28;8979;-70
2021/06/24 07:50:52;;;;;;;;;2.00;2.00;;;;;36.96;40.90;98171.38;4989775;28;8857;-72
2021/06/24 07:53:21;;;;;;;;;2.40;2.40;;;;;36.87;42.17;98163.88;4990615;28;8849;-69
2021/06/24 07:55:52;;;;;;;;;1.20;1.20;;;;;36.81;42.30;98162.19;4990839;28;8850;-71
2021/06/24 07:58:21;;;;;;;;;2.00;2.00;;;;;36.79;41.13;98145.41;4990467;28;9574;-70
2021/06/24 08:00:51;;;;;;;;;1.60;1.60;;;;;36.77;41.03;98139.59;4990765;28;8853;-69
2021/06/24 08:03:27;;;;;;;;;1.00;1.00;;;;;36.79;42.45;98126.94;4990780;28;8895;-70
2021/06/24 08:05:57;;;;;;;;;1.20;1.20;;;;;36.83;41.85;98127.53;4990184;28;8881;-70
2021/06/24 08:08:25;;;;;;;;;2.00;2.00;;;;;36.86;40.44;98131.34;4990529;28;8968;-70
2021/06/24 08:10:58;;;;;;;;;0.80;0.80;;;;;36.86;42.60;98123.09;4989772;28;9467;-70
2021/06/24 08:13:28;;;;;;;;;1.00;1.00;;;;;36.79;42.61;98128.91;4990859;28;8943;-70
2021/06/24 08:15:57;;;;;;;;;1.80;1.80;;;;;36.78;41.30;98141.88;4991470;28;8915;-70
2021/06/24 08:18:50;;;;;;;;;1.00;1.00;;;;;36.77;41.88;98142.34;4989129;28;8810;-70
2021/06/24 08:21:18;;;;;;;;;0.20;0.20;;;;;36.84;41.44;98148.31;5008668;28;8884;-70
2021/06/24 08:23:47;;;;;;;;;2.00;2.00;;;;;36.89;41.03;98139.44;5011388;28;9031;-70
2021/06/24 08:26:16;;;;;;;;;1.80;1.80;;;;;36.96;42.11;98132.88;5012457;28;8881;-70
2021/06/24 08:28:47;;;;;;;;;1.20;1.20;;;;;36.90;42.51;98123.72;5012558;28;8841;-70
2021/06/24 08:31:16;;;;;;;;;2.00;2.00;;;;;36.87;42.67;98128.16;5015819;28;8861;-69
2021/06/24 08:33:45;;;;;;;;;2.00;2.00;;;;;36.75;43.18;98118.06;5024705;28;8843;-70
2021/06/24 08:36:13;;;;;;;;;1.00;1.00;;;;;36.65;42.91;98099.25;5033228;28;8851;-70
2021/06/24 08:38:42;;;;;;;;;2.00;2.00;;;;;36.62;43.37;98103.69;5033169;28;8854;-70
2021/06/24 08:41:13;;;;;;;;;3.40;3.40;;;;;36.59;43.55;98107.34;5031044;28;8858;-70
2021/06/24 08:43:42;;;;;;;;;1.00;1.00;;;;;36.50;41.70;98107.34;5012699;28;8822;-72
2021/06/24 08:46:12;;;;;;;;;1.60;1.60;;;;;36.39;41.64;98107.81;5020387;28;8857;-74
2021/06/24 08:48:41;;;;;;;;;1.00;1.00;;;;;36.43;41.72;98124.13;5037451;28;8841;-74
2021/06/24 08:51:33;;;;;;;;;3.00;3.00;;;;;36.37;42.93;98121.22;5011762;28;8825;-70
2021/06/24 08:54:25;;;;;;;;;3.60;3.60;;;;;36.25;42.13;98133.84;5013140;28;8793;-72
2021/06/24 08:56:53;;;;;;;;;3.60;3.60;;;;;36.12;41.69;98152.41;5012421;28;8858;-72
2021/06/24 08:59:23;;;;;;;;;4.00;4.00;;;;;36.01;43.35;98151.31;5011082;28;8857;-71
2021/06/24 09:01:58;;;;;;;;;2.00;2.00;;;;;35.83;42.81;98152.75;5011595;28;8853;-73
2021/06/24 09:04:32;;;;;;;;;2.40;2.40;;;;;35.56;42.17;98149.84;5012091;28;8849;-71
2021/06/24 09:07:22;;;;;;;;;2.80;2.80;;;;;35.34;42.58;98149.09;5013268;28;8845;-71
2021/06/24 09:09:58;;;;;;;;;2.00;2.00;;;;;35.23;42.25;98174.13;5012965;28;8853;-71
2021/06/24 09:12:27;;;;;;;;;1.60;1.60;;;;;35.10;42.80;98176.97;5013177;28;8841;-71
2021/06/24 09:15:03;;;;;;;;;0.80;0.80;;;;;34.96;43.08;98177.47;5013186;28;8888;-71
2021/06/24 09:17:39;;;;;;;;;1.00;1.00;;;;;34.85;43.90;98193.50;5013205;28;8833;-71
2021/06/24 09:20:29;;;;;;;;;1.60;1.60;;;;;34.70;43.06;98193.19;5013174;28;9618;-71
2021/06/24 09:23:20;;;;;;;;;0.80;0.80;;;;;34.57;43.46;98203.38;5013126;28;8968;-71
2021/06/24 09:26:06;;;;;;;;;0.20;0.20;;;;;34.43;44.49;98193.66;5012908;28;8850;-71
2021/06/24 09:28:40;;;;;;;;;2.60;2.60;;;;;34.29;46.02;98172.94;5012572;28;8845;-72
2021/06/24 09:31:26;;;;;;;;;3.00;2.00;;;;;34.19;46.72;98186.97;5012786;28;8988;-72
2021/06/24 09:33:56;;;;;;;;;2.20;2.20;;;;;34.01;46.38;98184.78;5027495;28;8833;-71
2021/06/24 09:36:39;;;;;;;;;1.00;1.00;;;;;33.84;48.97;98170.41;5012793;28;8829;-71
2021/06/24 09:39:27;;;;;;;;;0.40;0.40;;;;;33.61;47.36;98152.34;5013089;28;8833;-71
2021/06/24 09:42:08;;;;;;;;;0.80;0.80;;;;;33.41;49.09;98154.47;5012652;28;8857;-71
2021/06/24 09:44:40;;;;;;;;;0.20;0.20;;;;;33.25;47.05;98152.53;5013097;28;8859;-72
2021/06/24 09:47:26;;;;;;;;;0.80;0.80;;;;;33.16;47.02;98151.63;5012816;28;8948;-72
2021/06/24 09:50:01;;;;;;;;;1.00;1.00;;;;;33.06;47.14;98158.94;5012677;28;8841;-72
2021/06/24 09:52:31;;;;;;;;;0.00;0.00;;;;;32.85;47.42;98156.75;5013039;28;9629;-72
2021/06/24 09:55:07;;;;;;;;;1.00;1.00;;;;;32.59;49.92;98183.13;5013451;28;8872;-72
2021/06/24 09:57:37;;;;;;;;;1.00;1.00;;;;;32.38;53.30;98193.38;5012650;28;8954;-72
2021/06/24 10:00:22;;;;;;;;;1.00;1.00;;;;;32.19;49.73;98180.56;5012727;28;8849;-72
2021/06/24 10:03:05;;;;;;;;;2.00;2.00;;;;;32.06;49.36;98176.94;5012603;28;8860;-72
2021/06/24 10:05:35;;;;;;;;;1.40;1.40;;;;;31.90;49.94;98152.38;5012617;28;8837;-72
2021/06/24 10:08:04;;;;;;;;;1.80;1.80;;;;;31.89;51.52;98156.28;5013036;28;8947;-72
2021/06/24 10:10:34;;;;;;;;;1.00;1.00;;;;;31.79;49.84;98141.69;5012414;28;8883;-72
2021/06/24 10:13:05;;;;;;;;;0.80;0.80;;;;;31.78;49.39;98151.84;5012492;28;8818;-72
2021/06/24 10:15:35;;;;;;;;;1.00;1.00;;;;;31.69;49.97;98139.97;5012456;28;8849;-72
2021/06/24 10:18:04;;;;;;;;;1.80;1.80;;;;;31.68;49.98;98147.38;5012491;28;8841;-72
2021/06/24 10:20:33;;;;;;;;;1.60;1.60;;;;;31.69;50.40;98161.78;5012390;28;8841;-72
2021/06/24 10:23:18;;;;;;;;;2.00;2.00;;;;;31.64;50.22;98157.56;5012367;28;9602;-72
2021/06/24 10:25:51;;;;;;;;;1.40;1.40;;;;;31.63;50.79;98155.25;5012308;28;8852;-72
2021/06/24 10:28:20;;;;;;;;;1.40;1.40;;;;;31.54;50.19;98152.31;5027394;28;9539;-72
2021/06/24 10:30:49;;;;;;;;;1.20;1.20;;;;;31.57;52.25;98157.69;5012243;28;8884;-71
2021/06/24 10:33:18;;;;;;;;;2.80;2.80;;;;;31.50;50.75;98155.13;5012202;28;8849;-71
2021/06/24 10:35:51;;;;;;;;;2.00;2.00;;;;;31.55;51.34;98171.00;5012362;28;8850;-72
2021/06/24 10:38:22;;;;;;;;;1.00;1.00;;;;;31.55;50.02;98175.66;5012204;28;8853;-71
2021/06/24 10:41:00;;;;;;;;;2.00;2.00;;;;;31.42;50.92;98172.81;5012292;28;8907;-72
2021/06/24 10:43:45;;;;;;;;;2.00;2.00;;;;;31.45;50.11;98183.66;5016201;28;8980;-71
2021/06/24 10:46:17;;;;;;;;;1.00;1.00;;;;;31.40;50.94;98181.41;5016143;28;8964;-72
2021/06/24 10:48:45;;;;;;;;;1.80;1.80;;;;;31.30;50.95;98182.38;5016159;28;8865;-72
2021/06/24 10:51:16;;;;;;;;;1.80;1.80;;;;;31.26;51.08;98178.19;5016067;28;8931;-72
2021/06/24 10:53:48;;;;;;;;;0.80;0.80;;;;;31.20;51.06;98188.06;5015967;28;9727;-72
2021/06/24 10:56:29;;;;;;;;;1.80;1.80;;;;;31.19;49.91;98186.53;5016113;28;8841;-72
2021/06/24 10:59:01;;;;;;;;;2.00;2.00;;;;;31.12;50.75;98182.72;5016028;28;9587;-72
2021/06/24 11:01:44;;;;;;;;;1.60;1.60;;;;;31.06;51.22;98178.16;5015888;28;8853;-72
2021/06/24 11:04:26;;;;;;;;;1.00;1.00;;;;;31.05;51.56;98180.13;5030670;28;8923;-72
2021/06/24 11:06:57;;;;;;;;;1.20;1.20;;;;;31.05;51.65;98187.53;5015898;28;8931;-72
2021/06/24 11:09:26;;;;;;;;;1.60;1.60;;;;;31.02;51.58;98180.19;5015861;28;8876;-72
2021/06/24 11:11:55;;;;;;;;;2.00;2.00;;;;;31.07;51.14;98188.63;5015614;28;8873;-72
2021/06/24 11:14:47;;;;;;;;;0.80;0.80;;;;;31.07;51.53;98185.16;5015712;28;8888;-72
2021/06/24 11:17:41;;;;;;;;;2.20;2.20;;;;;31.07;50.90;98196.81;5015518;28;8865;-71
2021/06/24 11:20:41;;;;;;;;;2.00;2.00;;;;;31.04;51.42;98194.16;5015429;28;9492;-71
2021/06/24 11:23:34;;;;;;;;;1.00;1.00;;;;;31.01;51.51;98192.25;5015475;28;8861;-71
2021/06/24 11:26:18;;;;;;;;;2.80;2.80;;;;;31.02;50.94;98188.34;5015487;28;8971;-71
2021/06/24 11:36:54;;;;;;;;;3.00;3.00;;;;;30.82;50.97;98205.41;5015230;28;8857;-71
2021/06/24 11:39:29;;;;;;;;;1.40;1.40;;;;;30.81;50.74;98214.00;5030252;28;8845;-71
2021/06/24 11:42:00;;;;;;;;;2.40;2.40;;;;;30.71;51.30;98209.50;5015093;28;8876;-71
2021/06/24 11:44:31;;;;;;;;;2.00;2.00;;;;;30.64;51.29;98217.78;5015330;28;8927;-71
2021/06/24 11:47:12;;;;;;;;;1.60;1.60;;;;;30.52;52.25;98221.81;5015000;28;8845;-71
2021/06/24 12:03:56;;;;;;;;;1.40;1.40;;;;;30.69;55.90;98252.69;5015002;28;8859;-72
2021/06/24 12:06:24;;;;;;;;;1.00;1.00;;;;;30.72;55.13;98254.59;5014552;28;8912;-72
2021/06/24 12:08:59;;;;;;;;;1.00;1.00;;;;;30.71;54.49;98253.06;5014682;28;8904;-72
2021/06/24 12:11:36;;;;;;;;;1.60;1.60;;;;;30.82;54.13;98275.44;5014477;28;8860;-72
2021/06/24 12:14:26;;;;;;;;;2.00;2.00;;;;;30.89;55.13;98278.06;5014407;28;8837;-72
2021/06/24 12:17:04;;;;;;;;;1.40;1.40;;;;;30.95;56.51;98283.81;5014772;28;8837;-72
2021/06/24 12:20:04;;;;;;;;;2.00;2.00;;;;;30.97;55.41;98284.94;5014689;28;8868;-71
2021/06/24 12:22:35;;;;;;;;;1.60;1.60;;;;;31.00;55.30;98297.72;5014228;28;8853;-72
2021/06/24 12:25:14;;;;;;;;;2.40;2.40;;;;;31.04;56.46;98297.66;5014304;28;8918;-71
2021/06/24 12:27:46;;;;;;;;;1.40;1.40;;;;;31.05;55.30;98308.16;5014233;28;8852;-71